sensor_id;sensor_type;location;lat;lon;timestamp;temperature;humidity
13336;DHT22;6737;51.480;11.962;2023-06-14T00:00:43;16.10;95.90
13336;DHT22;6737;51.480;11.962;2023-06-14T00:03:10;16.10;95.90
13336;DHT22;6737;51.480;11.962;2023-06-14T00:05:38;16.00;95.60
13336;DHT22;6737;51.480;11.962;2023-06-14T00:08:11;16.00;96.20
13336;DHT22;6737;51.480;11.962;2023-06-14T00:10:37;15.90;96.10
13336;DHT22;6737;51.480;11.962;2023-06-14T00:13:04;15.90;96.10
13336;DHT22;6737;51.480;11.962;2023-06-14T00:15:33;15.80;96.00
13336;DHT22;6737;51.480;11.962;2023-06-14T00:17:59;15.70;96.30
13336;DHT22;6737;51.480;11.962;2023-06-14T00:20:29;15.80;96.80
13336;DHT22;6737;51.480;11.962;2023-06-14T00:22:56;15.70;96.60
13336;DHT22;6737;51.480;11.962;2023-06-14T00:25:23;15.50;96.50
13336;DHT22;6737;51.480;11.962;2023-06-14T00:27:53;15.40;96.60
13336;DHT22;6737;51.480;11.962;2023-06-14T00:30:19;15.40;96.70
13336;DHT22;6737;51.480;11.962;2023-06-14T00:32:45;15.40;97.10
13336;DHT22;6737;51.480;11.962;2023-06-14T00:35:12;15.40;97.20
13336;DHT22;6737;51.480;11.962;2023-06-14T00:37:38;15.30;97.00
13336;DHT22;6737;51.480;11.962;2023-06-14T00:40:04;15.30;97.40
13336;DHT22;6737;51.480;11.962;2023-06-14T00:42:31;15.30;97.40
13336;DHT22;6737;51.480;11.962;2023-06-14T00:44:57;15.30;97.70
13336;DHT22;6737;51.480;11.962;2023-06-14T00:47:23;15.30;97.70
13336;DHT22;6737;51.480;11.962;2023-06-14T00:49:52;15.30;98.00
13336;DHT22;6737;51.480;11.962;2023-06-14T00:52:18;15.30;97.90
13336;DHT22;6737;51.480;11.962;2023-06-14T00:54:44;15.20;98.00
13336;DHT22;6737;51.480;11.962;2023-06-14T00:57:10;15.20;98.10
13336;DHT22;6737;51.480;11.962;2023-06-14T00:59:38;15.20;98.40
13336;DHT22;6737;51.480;11.962;2023-06-14T01:02:07;15.10;98.30
13336;DHT22;6737;51.480;11.962;2023-06-14T01:04:32;14.90;98.20
13336;DHT22;6737;51.480;11.962;2023-06-14T01:07:11;15.00;98.60
13336;DHT22;6737;51.480;11.962;2023-06-14T01:15:07;15.00;99.10
13336;DHT22;6737;51.480;11.962;2023-06-14T01:17:34;15.00;99.30
13336;DHT22;6737;51.480;11.962;2023-06-14T01:20:03;15.00;99.60
13336;DHT22;6737;51.480;11.962;2023-06-14T01:22:35;14.90;99.40
13336;DHT22;6737;51.480;11.962;2023-06-14T01:25:01;14.90;99.70
13336;DHT22;6737;51.480;11.962;2023-06-14T01:27:27;14.90;99.80
13336;DHT22;6737;51.480;11.962;2023-06-14T01:29:58;14.90;99.70
13336;DHT22;6737;51.480;11.962;2023-06-14T01:32:28;14.90;99.90
13336;DHT22;6737;51.480;11.962;2023-06-14T01:34:55;14.90;99.90
13336;DHT22;6737;51.480;11.962;2023-06-14T01:37:21;14.80;99.90
13336;DHT22;6737;51.480;11.962;2023-06-14T01:39:48;14.80;99.90
13336;DHT22;6737;51.480;11.962;2023-06-14T01:42:16;14.80;99.90
13336;DHT22;6737;51.480;11.962;2023-06-14T01:44:43;14.90;99.90
13336;DHT22;6737;51.480;11.962;2023-06-14T01:47:10;14.90;99.90
13336;DHT22;6737;51.480;11.962;2023-06-14T01:49:36;14.80;99.90
13336;DHT22;6737;51.480;11.962;2023-06-14T01:52:04;14.90;99.90
13336;DHT22;6737;51.480;11.962;2023-06-14T01:54:29;14.90;99.90
13336;DHT22;6737;51.480;11.962;2023-06-14T01:56:57;14.80;99.90
13336;DHT22;6737;51.480;11.962;2023-06-14T01:59:23;14.90;99.90
13336;DHT22;6737;51.480;11.962;2023-06-14T02:01:49;14.80;99.90
13336;DHT22;6737;51.480;11.962;2023-06-14T02:04:14;14.80;99.90
13336;DHT22;6737;51.480;11.962;2023-06-14T02:06:40;14.80;99.90
13336;DHT22;6737;51.480;11.962;2023-06-14T02:09:06;14.70;99.90
13336;DHT22;6737;51.480;11.962;2023-06-14T02:11:31;14.70;99.90
13336;DHT22;6737;51.480;11.962;2023-06-14T02:13:57;14.70;99.90
13336;DHT22;6737;51.480;11.962;2023-06-14T02:16:25;14.70;99.90
13336;DHT22;6737;51.480;11.962;2023-06-14T02:18:53;14.70;99.90
13336;DHT22;6737;51.480;11.962;2023-06-14T02:21:19;14.60;99.90
13336;DHT22;6737;51.480;11.962;2023-06-14T02:23:45;14.60;99.90
13336;DHT22;6737;51.480;11.962;2023-06-14T02:26:10;14.60;99.90
13336;DHT22;6737;51.480;11.962;2023-06-14T02:28:36;14.50;99.90
13336;DHT22;6737;51.480;11.962;2023-06-14T02:31:02;14.50;99.90
13336;DHT22;6737;51.480;11.962;2023-06-14T02:33:28;14.50;99.90
13336;DHT22;6737;51.480;11.962;2023-06-14T02:35:53;14.30;99.90
13336;DHT22;6737;51.480;11.962;2023-06-14T02:38:19;14.20;99.90
13336;DHT22;6737;51.480;11.962;2023-06-14T02:40:45;14.30;99.90
13336;DHT22;6737;51.480;11.962;2023-06-14T02:43:11;14.20;99.90
13336;DHT22;6737;51.480;11.962;2023-06-14T02:45:37;14.00;99.90
13336;DHT22;6737;51.480;11.962;2023-06-14T02:48:03;14.00;99.90
13336;DHT22;6737;51.480;11.962;2023-06-14T02:50:28;14.10;99.90
13336;DHT22;6737;51.480;11.962;2023-06-14T02:52:55;14.00;99.90
13336;DHT22;6737;51.480;11.962;2023-06-14T02:55:22;13.90;99.90
13336;DHT22;6737;51.480;11.962;2023-06-14T02:57:48;13.90;99.90
13336;DHT22;6737;51.480;11.962;2023-06-14T03:00:15;14.00;99.90
13336;DHT22;6737;51.480;11.962;2023-06-14T03:02:41;14.00;99.90
13336;DHT22;6737;51.480;11.962;2023-06-14T03:05:08;14.10;99.90
13336;DHT22;6737;51.480;11.962;2023-06-14T03:07:35;14.00;99.90
13336;DHT22;6737;51.480;11.962;2023-06-14T03:10:01;14.00;99.90
13336;DHT22;6737;51.480;11.962;2023-06-14T03:12:28;13.80;99.90
13336;DHT22;6737;51.480;11.962;2023-06-14T03:14:54;13.70;99.90
13336;DHT22;6737;51.480;11.962;2023-06-14T03:17:22;13.90;99.90
13336;DHT22;6737;51.480;11.962;2023-06-14T03:19:49;13.80;99.90
13336;DHT22;6737;51.480;11.962;2023-06-14T03:22:15;13.90;99.90
13336;DHT22;6737;51.480;11.962;2023-06-14T03:24:41;13.80;99.90
13336;DHT22;6737;51.480;11.962;2023-06-14T03:27:08;13.90;99.90
13336;DHT22;6737;51.480;11.962;2023-06-14T03:29:35;13.70;99.90
13336;DHT22;6737;51.480;11.962;2023-06-14T03:32:02;13.70;99.90
13336;DHT22;6737;51.480;11.962;2023-06-14T03:34:29;13.70;99.90
13336;DHT22;6737;51.480;11.962;2023-06-14T03:36:55;13.80;99.90
13336;DHT22;6737;51.480;11.962;2023-06-14T03:39:21;13.90;99.90
13336;DHT22;6737;51.480;11.962;2023-06-14T03:41:46;13.70;99.90
13336;DHT22;6737;51.480;11.962;2023-06-14T03:44:15;13.70;99.90
13336;DHT22;6737;51.480;11.962;2023-06-14T03:46:42;13.80;99.90
13336;DHT22;6737;51.480;11.962;2023-06-14T03:49:08;13.70;99.90
13336;DHT22;6737;51.480;11.962;2023-06-14T03:51:34;13.60;99.90
13336;DHT22;6737;51.480;11.962;2023-06-14T03:54:01;13.70;99.90
13336;DHT22;6737;51.480;11.962;2023-06-14T03:56:26;13.80;99.90
13336;DHT22;6737;51.480;11.962;2023-06-14T03:58:52;13.70;99.90
13336;DHT22;6737;51.480;11.962;2023-06-14T04:01:18;13.60;99.90
13336;DHT22;6737;51.480;11.962;2023-06-14T04:03:44;13.60;99.90
13336;DHT22;6737;51.480;11.962;2023-06-14T04:06:10;13.60;99.90
13336;DHT22;6737;51.480;11.962;2023-06-14T04:08:35;13.60;99.90
13336;DHT22;6737;51.480;11.962;2023-06-14T04:11:02;13.60;99.90
13336;DHT22;6737;51.480;11.962;2023-06-14T04:13:27;13.60;99.90
13336;DHT22;6737;51.480;11.962;2023-06-14T04:15:53;13.60;99.90
13336;DHT22;6737;51.480;11.962;2023-06-14T04:18:19;13.70;99.90
13336;DHT22;6737;51.480;11.962;2023-06-14T04:20:46;13.60;99.90
13336;DHT22;6737;51.480;11.962;2023-06-14T04:23:16;13.80;99.90
13336;DHT22;6737;51.480;11.962;2023-06-14T04:25:44;13.90;99.90
13336;DHT22;6737;51.480;11.962;2023-06-14T04:28:13;14.00;99.90
13336;DHT22;6737;51.480;11.962;2023-06-14T04:30:43;14.00;99.90
13336;DHT22;6737;51.480;11.962;2023-06-14T04:33:10;14.00;99.90
13336;DHT22;6737;51.480;11.962;2023-06-14T04:35:36;14.10;99.90
13336;DHT22;6737;51.480;11.962;2023-06-14T04:38:06;14.00;99.90
13336;DHT22;6737;51.480;11.962;2023-06-14T04:40:35;14.00;99.90
13336;DHT22;6737;51.480;11.962;2023-06-14T04:43:08;14.00;99.90
13336;DHT22;6737;51.480;11.962;2023-06-14T04:45:38;14.10;99.90
13336;DHT22;6737;51.480;11.962;2023-06-14T04:48:06;14.20;99.90
13336;DHT22;6737;51.480;11.962;2023-06-14T04:50:32;14.20;99.90
13336;DHT22;6737;51.480;11.962;2023-06-14T04:52:59;14.20;99.90
13336;DHT22;6737;51.480;11.962;2023-06-14T04:55:25;14.20;99.90
13336;DHT22;6737;51.480;11.962;2023-06-14T04:57:52;14.30;99.90
13336;DHT22;6737;51.480;11.962;2023-06-14T05:00:20;14.40;99.90
13336;DHT22;6737;51.480;11.962;2023-06-14T05:02:47;14.40;99.90
13336;DHT22;6737;51.480;11.962;2023-06-14T05:05:14;14.40;99.90
13336;DHT22;6737;51.480;11.962;2023-06-14T05:07:41;14.40;99.90
13336;DHT22;6737;51.480;11.962;2023-06-14T05:10:07;14.50;99.90
13336;DHT22;6737;51.480;11.962;2023-06-14T05:12:33;14.40;99.90
13336;DHT22;6737;51.480;11.962;2023-06-14T05:14:59;14.40;99.90
13336;DHT22;6737;51.480;11.962;2023-06-14T05:17:25;14.30;99.90
13336;DHT22;6737;51.480;11.962;2023-06-14T05:19:54;14.50;99.90
13336;DHT22;6737;51.480;11.962;2023-06-14T05:22:21;14.60;99.90
13336;DHT22;6737;51.480;11.962;2023-06-14T05:24:47;14.60;99.90
13336;DHT22;6737;51.480;11.962;2023-06-14T05:27:14;14.50;99.90
13336;DHT22;6737;51.480;11.962;2023-06-14T05:29:40;14.40;99.90
13336;DHT22;6737;51.480;11.962;2023-06-14T05:32:06;14.30;99.90
13336;DHT22;6737;51.480;11.962;2023-06-14T05:34:31;14.50;99.90
13336;DHT22;6737;51.480;11.962;2023-06-14T05:36:57;14.60;99.90
13336;DHT22;6737;51.480;11.962;2023-06-14T05:39:24;14.70;99.90
13336;DHT22;6737;51.480;11.962;2023-06-14T05:41:50;14.80;99.90
13336;DHT22;6737;51.480;11.962;2023-06-14T05:44:16;14.80;99.90
13336;DHT22;6737;51.480;11.962;2023-06-14T05:46:42;14.80;99.90
13336;DHT22;6737;51.480;11.962;2023-06-14T05:49:07;14.90;99.90
13336;DHT22;6737;51.480;11.962;2023-06-14T05:51:33;15.00;99.90
13336;DHT22;6737;51.480;11.962;2023-06-14T05:53:59;15.10;99.90
13336;DHT22;6737;51.480;11.962;2023-06-14T05:56:25;15.10;99.90
13336;DHT22;6737;51.480;11.962;2023-06-14T05:58:52;15.10;99.90
13336;DHT22;6737;51.480;11.962;2023-06-14T06:01:18;15.10;99.90
13336;DHT22;6737;51.480;11.962;2023-06-14T06:03:43;15.10;99.90
13336;DHT22;6737;51.480;11.962;2023-06-14T06:06:13;15.30;99.90
13336;DHT22;6737;51.480;11.962;2023-06-14T06:08:39;15.40;99.90
13336;DHT22;6737;51.480;11.962;2023-06-14T06:11:06;15.40;99.90
13336;DHT22;6737;51.480;11.962;2023-06-14T06:13:32;15.30;99.90
13336;DHT22;6737;51.480;11.962;2023-06-14T06:15:58;15.40;99.90
13336;DHT22;6737;51.480;11.962;2023-06-14T06:18:23;15.40;99.90
13336;DHT22;6737;51.480;11.962;2023-06-14T06:20:49;15.50;99.90
13336;DHT22;6737;51.480;11.962;2023-06-14T06:23:15;15.60;99.90
13336;DHT22;6737;51.480;11.962;2023-06-14T06:25:42;15.70;99.90
13336;DHT22;6737;51.480;11.962;2023-06-14T06:28:08;15.80;99.90
13336;DHT22;6737;51.480;11.962;2023-06-14T06:30:34;15.80;99.90
13336;DHT22;6737;51.480;11.962;2023-06-14T06:33:01;15.90;99.90
13336;DHT22;6737;51.480;11.962;2023-06-14T06:35:28;16.00;99.90
13336;DHT22;6737;51.480;11.962;2023-06-14T06:37:55;16.00;99.90
13336;DHT22;6737;51.480;11.962;2023-06-14T06:40:21;16.10;99.90
13336;DHT22;6737;51.480;11.962;2023-06-14T06:42:47;16.20;99.90
13336;DHT22;6737;51.480;11.962;2023-06-14T06:45:13;16.30;99.90
13336;DHT22;6737;51.480;11.962;2023-06-14T06:47:39;16.30;99.90
13336;DHT22;6737;51.480;11.962;2023-06-14T06:50:05;16.40;99.90
13336;DHT22;6737;51.480;11.962;2023-06-14T06:52:33;16.50;99.90
13336;DHT22;6737;51.480;11.962;2023-06-14T06:54:59;16.60;99.90
13336;DHT22;6737;51.480;11.962;2023-06-14T06:57:24;16.70;99.90
13336;DHT22;6737;51.480;11.962;2023-06-14T06:59:50;16.80;99.90
13336;DHT22;6737;51.480;11.962;2023-06-14T07:02:16;16.90;99.90
13336;DHT22;6737;51.480;11.962;2023-06-14T07:04:42;17.00;99.90
13336;DHT22;6737;51.480;11.962;2023-06-14T07:07:08;17.00;99.90
13336;DHT22;6737;51.480;11.962;2023-06-14T07:09:36;17.10;99.90
13336;DHT22;6737;51.480;11.962;2023-06-14T07:12:02;17.10;99.90
13336;DHT22;6737;51.480;11.962;2023-06-14T07:14:27;17.20;99.90
13336;DHT22;6737;51.480;11.962;2023-06-14T07:16:54;17.40;99.90
13336;DHT22;6737;51.480;11.962;2023-06-14T07:19:20;17.40;99.90
13336;DHT22;6737;51.480;11.962;2023-06-14T07:21:46;17.60;99.90
13336;DHT22;6737;51.480;11.962;2023-06-14T07:24:12;17.70;99.90
13336;DHT22;6737;51.480;11.962;2023-06-14T07:26:38;17.80;99.90
13336;DHT22;6737;51.480;11.962;2023-06-14T07:29:03;17.90;99.90
13336;DHT22;6737;51.480;11.962;2023-06-14T07:31:29;18.00;99.90
13336;DHT22;6737;51.480;11.962;2023-06-14T07:33:55;18.00;99.90
13336;DHT22;6737;51.480;11.962;2023-06-14T07:36:22;18.10;99.90
13336;DHT22;6737;51.480;11.962;2023-06-14T07:38:48;18.20;99.90
13336;DHT22;6737;51.480;11.962;2023-06-14T07:41:14;18.30;99.90
13336;DHT22;6737;51.480;11.962;2023-06-14T07:43:39;18.30;99.90
13336;DHT22;6737;51.480;11.962;2023-06-14T07:46:05;18.40;99.90
13336;DHT22;6737;51.480;11.962;2023-06-14T07:48:31;18.50;99.90
13336;DHT22;6737;51.480;11.962;2023-06-14T07:50:57;18.60;99.90
13336;DHT22;6737;51.480;11.962;2023-06-14T07:53:24;18.70;99.90
13336;DHT22;6737;51.480;11.962;2023-06-14T07:55:51;18.80;99.90
13336;DHT22;6737;51.480;11.962;2023-06-14T07:58:17;18.80;99.90
13336;DHT22;6737;51.480;11.962;2023-06-14T08:00:42;18.80;99.70
13336;DHT22;6737;51.480;11.962;2023-06-14T08:03:08;18.90;99.90
13336;DHT22;6737;51.480;11.962;2023-06-14T08:05:34;19.00;99.90
13336;DHT22;6737;51.480;11.962;2023-06-14T08:08:00;19.00;99.60
13336;DHT22;6737;51.480;11.962;2023-06-14T08:10:26;19.00;99.90
13336;DHT22;6737;51.480;11.962;2023-06-14T08:12:52;19.00;98.40
13336;DHT22;6737;51.480;11.962;2023-06-14T08:15:18;19.00;98.80
13336;DHT22;6737;51.480;11.962;2023-06-14T08:17:44;19.10;99.60
13336;DHT22;6737;51.480;11.962;2023-06-14T08:20:11;19.20;99.40
13336;DHT22;6737;51.480;11.962;2023-06-14T08:22:38;19.20;99.30
13336;DHT22;6737;51.480;11.962;2023-06-14T08:25:05;19.20;99.00
13336;DHT22;6737;51.480;11.962;2023-06-14T08:27:32;19.30;99.40
13336;DHT22;6737;51.480;11.962;2023-06-14T08:29:58;19.40;99.50
13336;DHT22;6737;51.480;11.962;2023-06-14T08:32:23;19.40;98.80
13336;DHT22;6737;51.480;11.962;2023-06-14T08:34:49;19.50;99.40
13336;DHT22;6737;51.480;11.962;2023-06-14T08:37:15;19.50;98.50
13336;DHT22;6737;51.480;11.962;2023-06-14T08:39:41;19.50;97.90
13336;DHT22;6737;51.480;11.962;2023-06-14T08:42:09;19.60;98.70
13336;DHT22;6737;51.480;11.962;2023-06-14T08:44:35;19.60;98.40
13336;DHT22;6737;51.480;11.962;2023-06-14T08:47:01;19.40;97.70
13336;DHT22;6737;51.480;11.962;2023-06-14T08:49:29;19.50;98.60
13336;DHT22;6737;51.480;11.962;2023-06-14T08:51:58;19.70;99.30
13336;DHT22;6737;51.480;11.962;2023-06-14T08:54:28;19.80;98.40
13336;DHT22;6737;51.480;11.962;2023-06-14T08:57:00;20.00;98.20
13336;DHT22;6737;51.480;11.962;2023-06-14T08:59:26;20.10;98.30
13336;DHT22;6737;51.480;11.962;2023-06-14T09:01:54;19.90;97.20
13336;DHT22;6737;51.480;11.962;2023-06-14T09:04:23;19.90;97.00
13336;DHT22;6737;51.480;11.962;2023-06-14T09:06:56;20.00;97.20
13336;DHT22;6737;51.480;11.962;2023-06-14T09:09:22;20.10;96.90
13336;DHT22;6737;51.480;11.962;2023-06-14T09:11:50;20.10;96.60
13336;DHT22;6737;51.480;11.962;2023-06-14T09:14:16;20.20;97.10
13336;DHT22;6737;51.480;11.962;2023-06-14T09:16:41;20.30;96.70
13336;DHT22;6737;51.480;11.962;2023-06-14T09:19:07;20.30;96.50
13336;DHT22;6737;51.480;11.962;2023-06-14T09:21:37;20.40;96.50
13336;DHT22;6737;51.480;11.962;2023-06-14T09:24:03;20.50;95.60
13336;DHT22;6737;51.480;11.962;2023-06-14T09:26:30;20.60;95.80
13336;DHT22;6737;51.480;11.962;2023-06-14T09:28:55;20.60;95.40
13336;DHT22;6737;51.480;11.962;2023-06-14T09:31:21;20.60;95.50
13336;DHT22;6737;51.480;11.962;2023-06-14T09:33:51;20.50;95.50
13336;DHT22;6737;51.480;11.962;2023-06-14T09:36:25;20.60;95.80
13336;DHT22;6737;51.480;11.962;2023-06-14T09:39:03;20.50;95.00
13336;DHT22;6737;51.480;11.962;2023-06-14T09:41:38;20.50;95.30
13336;DHT22;6737;51.480;11.962;2023-06-14T09:44:07;20.50;94.70
13336;DHT22;6737;51.480;11.962;2023-06-14T09:46:33;20.60;94.70
13336;DHT22;6737;51.480;11.962;2023-06-14T09:49:01;20.90;94.60
13336;DHT22;6737;51.480;11.962;2023-06-14T09:51:27;21.10;94.70
13336;DHT22;6737;51.480;11.962;2023-06-14T09:53:59;21.20;94.10
13336;DHT22;6737;51.480;11.962;2023-06-14T09:56:31;21.30;94.80
13336;DHT22;6737;51.480;11.962;2023-06-14T09:58:58;21.20;94.20
13336;DHT22;6737;51.480;11.962;2023-06-14T10:01:26;21.10;94.70
13336;DHT22;6737;51.480;11.962;2023-06-14T10:04:00;21.30;93.40
13336;DHT22;6737;51.480;11.962;2023-06-14T10:06:26;21.40;93.60
13336;DHT22;6737;51.480;11.962;2023-06-14T10:08:57;21.60;93.90
13336;DHT22;6737;51.480;11.962;2023-06-14T10:11:26;21.40;93.00
13336;DHT22;6737;51.480;11.962;2023-06-14T10:13:52;21.50;93.40
13336;DHT22;6737;51.480;11.962;2023-06-14T10:22:14;21.60;92.80
13336;DHT22;6737;51.480;11.962;2023-06-14T10:24:43;21.80;93.00
13336;DHT22;6737;51.480;11.962;2023-06-14T10:27:12;21.70;92.60
13336;DHT22;6737;51.480;11.962;2023-06-14T10:32:23;21.60;93.10
13336;DHT22;6737;51.480;11.962;2023-06-14T10:35:00;21.70;93.60
13336;DHT22;6737;51.480;11.962;2023-06-14T10:37:27;21.80;93.40
13336;DHT22;6737;51.480;11.962;2023-06-14T10:39:53;21.90;93.10
13336;DHT22;6737;51.480;11.962;2023-06-14T10:42:19;21.90;93.10
13336;DHT22;6737;51.480;11.962;2023-06-14T10:44:49;22.00;93.10
13336;DHT22;6737;51.480;11.962;2023-06-14T10:47:26;22.10;94.00
13336;DHT22;6737;51.480;11.962;2023-06-14T10:50:09;22.30;93.50
13336;DHT22;6737;51.480;11.962;2023-06-14T10:52:39;22.20;92.80
13336;DHT22;6737;51.480;11.962;2023-06-14T10:55:10;22.40;93.60
13336;DHT22;6737;51.480;11.962;2023-06-14T10:57:44;22.70;93.40
13336;DHT22;6737;51.480;11.962;2023-06-14T11:00:18;22.30;93.40
13336;DHT22;6737;51.480;11.962;2023-06-14T11:03:06;22.50;93.60
13336;DHT22;6737;51.480;11.962;2023-06-14T11:05:42;22.00;93.40
13336;DHT22;6737;51.480;11.962;2023-06-14T11:11:07;22.20;94.00
13336;DHT22;6737;51.480;11.962;2023-06-14T11:13:33;22.30;93.40
13336;DHT22;6737;51.480;11.962;2023-06-14T11:16:00;22.40;93.70
13336;DHT22;6737;51.480;11.962;2023-06-14T11:18:26;22.40;93.40
13336;DHT22;6737;51.480;11.962;2023-06-14T11:20:53;22.30;94.00
13336;DHT22;6737;51.480;11.962;2023-06-14T11:23:19;21.90;93.20
13336;DHT22;6737;51.480;11.962;2023-06-14T11:25:52;22.00;93.90
13336;DHT22;6737;51.480;11.962;2023-06-14T11:28:18;22.10;94.70
13336;DHT22;6737;51.480;11.962;2023-06-14T11:30:48;21.90;94.30
13336;DHT22;6737;51.480;11.962;2023-06-14T11:33:18;21.60;94.40
13336;DHT22;6737;51.480;11.962;2023-06-14T11:35:44;21.40;94.90
13336;DHT22;6737;51.480;11.962;2023-06-14T11:38:11;21.30;95.50
13336;DHT22;6737;51.480;11.962;2023-06-14T11:40:38;21.00;94.80
13336;DHT22;6737;51.480;11.962;2023-06-14T11:43:04;20.90;95.00
13336;DHT22;6737;51.480;11.962;2023-06-14T11:45:30;20.90;95.50
13336;DHT22;6737;51.480;11.962;2023-06-14T11:48:00;20.90;95.70
13336;DHT22;6737;51.480;11.962;2023-06-14T11:50:27;20.80;95.60
13336;DHT22;6737;51.480;11.962;2023-06-14T11:52:58;21.00;95.90
13336;DHT22;6737;51.480;11.962;2023-06-14T11:55:25;21.30;95.90
13336;DHT22;6737;51.480;11.962;2023-06-14T11:57:53;21.40;95.80
13336;DHT22;6737;51.480;11.962;2023-06-14T12:00:27;21.30;95.70
13336;DHT22;6737;51.480;11.962;2023-06-14T12:02:55;21.20;95.50
13336;DHT22;6737;51.480;11.962;2023-06-14T12:05:24;21.10;95.00
13336;DHT22;6737;51.480;11.962;2023-06-14T12:07:59;21.20;95.30
13336;DHT22;6737;51.480;11.962;2023-06-14T12:10:26;21.40;96.10
13336;DHT22;6737;51.480;11.962;2023-06-14T12:12:57;21.70;94.60
13336;DHT22;6737;51.480;11.962;2023-06-14T12:15:24;21.70;94.60
13336;DHT22;6737;51.480;11.962;2023-06-14T12:17:49;22.00;95.90
13336;DHT22;6737;51.480;11.962;2023-06-14T12:20:16;22.10;95.60
13336;DHT22;6737;51.480;11.962;2023-06-14T12:22:55;22.20;95.50
13336;DHT22;6737;51.480;11.962;2023-06-14T12:25:33;22.10;95.30
13336;DHT22;6737;51.480;11.962;2023-06-14T12:28:07;21.80;94.60
13336;DHT22;6737;51.480;11.962;2023-06-14T12:30:35;21.80;95.20
13336;DHT22;6737;51.480;11.962;2023-06-14T12:33:04;21.80;94.80
13336;DHT22;6737;51.480;11.962;2023-06-14T12:35:31;21.90;95.70
13336;DHT22;6737;51.480;11.962;2023-06-14T12:37:57;21.80;95.30
13336;DHT22;6737;51.480;11.962;2023-06-14T12:40:23;21.60;95.60
13336;DHT22;6737;51.480;11.962;2023-06-14T12:42:48;21.60;94.80
13336;DHT22;6737;51.480;11.962;2023-06-14T12:45:15;21.80;95.20
13336;DHT22;6737;51.480;11.962;2023-06-14T12:47:41;22.00;94.90
13336;DHT22;6737;51.480;11.962;2023-06-14T12:50:08;22.10;94.80
13336;DHT22;6737;51.480;11.962;2023-06-14T12:52:34;22.10;94.80
13336;DHT22;6737;51.480;11.962;2023-06-14T12:55:04;21.80;94.50
13336;DHT22;6737;51.480;11.962;2023-06-14T12:57:31;21.70;94.70
13336;DHT22;6737;51.480;11.962;2023-06-14T12:59:57;21.80;94.80
13336;DHT22;6737;51.480;11.962;2023-06-14T13:02:22;22.00;94.90
13336;DHT22;6737;51.480;11.962;2023-06-14T13:04:50;22.20;94.90
13336;DHT22;6737;51.480;11.962;2023-06-14T13:07:16;22.30;94.60
13336;DHT22;6737;51.480;11.962;2023-06-14T13:09:43;22.00;94.10
13336;DHT22;6737;51.480;11.962;2023-06-14T13:12:10;22.10;95.20
13336;DHT22;6737;51.480;11.962;2023-06-14T13:14:42;22.10;95.50
13336;DHT22;6737;51.480;11.962;2023-06-14T13:17:08;22.00;94.70
13336;DHT22;6737;51.480;11.962;2023-06-14T13:19:35;21.90;94.80
13336;DHT22;6737;51.480;11.962;2023-06-14T13:22:01;21.80;95.20
13336;DHT22;6737;51.480;11.962;2023-06-14T13:24:28;21.80;95.20
13336;DHT22;6737;51.480;11.962;2023-06-14T13:26:55;21.70;95.40
13336;DHT22;6737;51.480;11.962;2023-06-14T13:29:23;21.80;95.50
13336;DHT22;6737;51.480;11.962;2023-06-14T13:31:49;21.70;95.60
13336;DHT22;6737;51.480;11.962;2023-06-14T13:34:15;21.60;95.90
13336;DHT22;6737;51.480;11.962;2023-06-14T13:36:40;21.40;95.20
13336;DHT22;6737;51.480;11.962;2023-06-14T13:39:06;21.20;95.50
13336;DHT22;6737;51.480;11.962;2023-06-14T13:41:32;21.20;95.50
13336;DHT22;6737;51.480;11.962;2023-06-14T13:44:00;21.10;95.20
13336;DHT22;6737;51.480;11.962;2023-06-14T13:46:26;20.90;95.00
13336;DHT22;6737;51.480;11.962;2023-06-14T13:48:52;20.90;95.40
13336;DHT22;6737;51.480;11.962;2023-06-14T13:51:18;20.90;95.70
13336;DHT22;6737;51.480;11.962;2023-06-14T13:53:51;20.90;95.70
13336;DHT22;6737;51.480;11.962;2023-06-14T13:56:18;21.00;96.20
13336;DHT22;6737;51.480;11.962;2023-06-14T13:58:45;21.20;96.30
13336;DHT22;6737;51.480;11.962;2023-06-14T14:01:11;21.10;95.60
13336;DHT22;6737;51.480;11.962;2023-06-14T14:03:37;21.10;96.10
13336;DHT22;6737;51.480;11.962;2023-06-14T14:06:04;21.10;95.80
13336;DHT22;6737;51.480;11.962;2023-06-14T14:08:30;21.10;96.10
13336;DHT22;6737;51.480;11.962;2023-06-14T14:10:56;21.10;95.90
13336;DHT22;6737;51.480;11.962;2023-06-14T14:13:22;21.10;96.10
13336;DHT22;6737;51.480;11.962;2023-06-14T14:15:48;21.10;95.80
13336;DHT22;6737;51.480;11.962;2023-06-14T14:18:18;21.20;95.50
13336;DHT22;6737;51.480;11.962;2023-06-14T14:20:46;21.30;95.60
13336;DHT22;6737;51.480;11.962;2023-06-14T14:23:11;21.50;95.80
13336;DHT22;6737;51.480;11.962;2023-06-14T14:25:37;21.50;95.60
13336;DHT22;6737;51.480;11.962;2023-06-14T14:28:03;21.70;95.90
13336;DHT22;6737;51.480;11.962;2023-06-14T14:30:29;21.80;94.80
13336;DHT22;6737;51.480;11.962;2023-06-14T14:32:55;21.80;95.00
13336;DHT22;6737;51.480;11.962;2023-06-14T14:35:21;21.70;95.10
13336;DHT22;6737;51.480;11.962;2023-06-14T14:37:48;21.60;94.90
13336;DHT22;6737;51.480;11.962;2023-06-14T14:40:13;21.50;95.20
13336;DHT22;6737;51.480;11.962;2023-06-14T14:42:39;21.40;96.20
13336;DHT22;6737;51.480;11.962;2023-06-14T14:45:06;21.40;97.20
13336;DHT22;6737;51.480;11.962;2023-06-14T14:47:32;21.30;96.30
13336;DHT22;6737;51.480;11.962;2023-06-14T14:49:57;21.30;96.10
13336;DHT22;6737;51.480;11.962;2023-06-14T14:52:23;21.20;96.10
13336;DHT22;6737;51.480;11.962;2023-06-14T14:54:50;21.10;96.40
13336;DHT22;6737;51.480;11.962;2023-06-14T14:57:16;21.00;97.20
13336;DHT22;6737;51.480;11.962;2023-06-14T14:59:42;21.00;96.40
13336;DHT22;6737;51.480;11.962;2023-06-14T15:02:08;21.00;96.80
13336;DHT22;6737;51.480;11.962;2023-06-14T15:04:34;21.00;97.10
13336;DHT22;6737;51.480;11.962;2023-06-14T15:06:59;21.00;95.80
13336;DHT22;6737;51.480;11.962;2023-06-14T15:09:25;21.00;96.10
13336;DHT22;6737;51.480;11.962;2023-06-14T15:11:51;21.00;96.50
13336;DHT22;6737;51.480;11.962;2023-06-14T15:14:17;21.00;95.90
13336;DHT22;6737;51.480;11.962;2023-06-14T15:16:42;21.10;96.50
13336;DHT22;6737;51.480;11.962;2023-06-14T15:19:08;21.10;96.00
13336;DHT22;6737;51.480;11.962;2023-06-14T15:21:34;21.10;96.90
13336;DHT22;6737;51.480;11.962;2023-06-14T15:24:01;21.20;96.20
13336;DHT22;6737;51.480;11.962;2023-06-14T15:26:27;21.20;96.80
13336;DHT22;6737;51.480;11.962;2023-06-14T15:28:54;21.30;96.20
13336;DHT22;6737;51.480;11.962;2023-06-14T15:31:20;21.50;96.60
13336;DHT22;6737;51.480;11.962;2023-06-14T15:33:46;21.60;95.90
13336;DHT22;6737;51.480;11.962;2023-06-14T15:36:11;21.70;95.70
13336;DHT22;6737;51.480;11.962;2023-06-14T15:38:37;21.80;95.80
13336;DHT22;6737;51.480;11.962;2023-06-14T15:41:03;21.90;96.10
13336;DHT22;6737;51.480;11.962;2023-06-14T15:43:28;21.80;95.90
13336;DHT22;6737;51.480;11.962;2023-06-14T15:45:55;21.80;96.00